Airfield :
LOGIN :

Register | Disclaimer

   EN    FR    IT 

 










Legend :    VFR   Marginal VFR   IFR   Intensive IFR   Very Intensive IFR
Visi :
Ceiling :
>= 8 km
>= 3000ft
5 to 8 km
1000 to 3000 ft
1500m to 5 km
500 to 1000 ft
800 to 1500m
200 to 500 ft
< 800m
< 200 ft
Symbols :   Thunderstorms  Fog  Heavy snow  Heavy precipitations  Wind > 20 kt
SIGMETs :     Misc.  Thunderstorms  Icing  Turbulence  Mountain Waves  Volcanic Ashes






- Airport Elevation : 156 ft
- IATA code : OMO


LQMO - Mostar

CURRENT METAR :
  • 200530Z 14005KT CAVOK M00/M05 Q1033

EXPIRED METARs :
  • 200500Z 17003KT 140V210 CAVOK 03/M05 Q1033
  • 200430Z VRB03KT CAVOK 01/M05 Q1033
  • 200400Z 15003KT 130V190 CAVOK M01/M05 Q1033
  • 200300Z VRB02KT CAVOK M00/M05 Q1033

TAF TAF LQMO
Valid from the 20 at 06:00 until the 21 at 06:00 UTC


200500Z 2006/2106 VRB02KT CAVOK TX12/2013Z TNM03/2106Z
PROB30
TEMPO 2006/2015 03012KT



MET'MAP, your aeronautical weather chart ! - Copyright ORBIFLY December 2007 - Disclaimer

ORBIFLY MET'MAP TEAM :

Programming & Development : Alexandra Zaïnal
Concept & original design : Baudouin d'Aumeries
Assistance for programming : Marc-Olivier Méhu
Technical & hardware support : Manuel Goepfert

Contact : metmap@orbifly.com




SOURCES & CREDITS :

   NOAA